Charlotte Amalie, VI

8:00 PM AST on September 19, 2014 (GMT -0400)
Luis Munoz Marin International | Change Station
CLOSE
Current Station
Airport
Location: San Juan,
Elevation: 7 ft
Nearby Weather Stations

Elev 7 ft 18.43 °N, 66.01 °W | Updated 4 minutes ago

Partly Cloudy
Partly Cloudy
82 °F
Feels Like 90 °F
N
7
Wind Variable Wind from East

Today
High -- | Low -- °F
--% Chance of Precip.
Yesterday
High -- | Low -- °F
Precip. -- in
6:08 AM 6:18 PM
Waning Crescent, 16% visible
Pressure 29.96 in
Visibility 10.0 miles
Clouds Few 8000 ft
Heat Index 90 °F
Dew Point 77 °F
Humidity 85%
Rainfall 2.59 in
Snow Depth Not available.
UV 0 out of 12
Pollen Not available.
Air Quality Not available.
Flu Activity Not available.
METAR TJSJ 192356Z 08006KT 10SM FEW080 28/25 A2997 RMK AO2 SLP146 T02780250 10328 20278 53014 $

More Conditions Fewer Conditions

Pressure 29.96 in
Visibility 10.0 miles
Clouds Few 8000 ft
Heat Index 90 °F
Dew Point 77 °F
Humidity 85%
Rainfall 2.59 in
Snow Depth Not available.
UV 0 out of 12
Pollen Not available.
Air Quality Not available.
Flu Activity Not available.
METAR TJSJ 192356Z 08006KT 10SM FEW080 28/25 A2997 RMK AO2 SLP146 T02780250 10328 20278 53014 $

More Conditions Fewer Conditions

10-Day Weather Forecast

Almanac

Astronomy

Sep. 19, 2014 Rise Set
Actual Time 6:08 AM AST 6:18 PM AST
Civil Twilight 5:46 AM AST 6:40 PM AST
Nautical Twilight 5:21 AM AST 7:05 PM AST
Astronomical Twilight 4:55 AM AST 7:31 PM AST
Moon 2:18 AM AST (9/19) 3:19 PM AST (9/19)
Length of Visible Light 12h 53m
Length of Day
12h 10m
Tomorrow will be 1m 2s shorter.
Waning Crescent, 16% of the Moon is Illuminated
Today
Waning Crescent
Sep 24
New
Oct 1
First Quarter
Oct 8
Full
Oct 15
Last Quarter

Community

WunderPhotos

Upload Photos

1,754,734 photos uploaded!

WunderBlogs® & News

Nearby

Snow Depth

Station Depth Elevation
No new snow has been reported.

Earthquake Activity

City Distance Mag. Time & Date
No recent earthquake activity has been reported nearby.
Minimum magnitude displayed is 2.5.

Coastal Water Temperatures

Place Temperature
Yabucoa Harbor, PR 84.0 °F
Esperanza, PR 87.1 °F
Charlotte Amalie, VI 86.0 °F

Nearby Weather Stations